Главная страница
METAR-TAF:

METAR-TAF

Аэропорты :

Fort Drum, Нью-Йорк, США

широта: 44-03N, долгота: 075-44W, высота над уровнем моря: 207 м

Текущие метеонаблюдения

Эта сводка был подготовлена 7 минут назад, в 17:56 UTC
Ветер 5 Узел от северный
Температура 24°C
Влажность 38%
Давление 1011 hPa
Видимость: 16.1 км
небольшая облачность на высоте 6000 фута

METAR: KGTB 121756Z AUTO 35005KT 10SM FEW060 24/09 A2986 RMK AO2 SLP109 T02430087 10246 20176 57010

Время: 14:03 (18:03 UTC)

Прогноз

Эта сводка был подготовлена 1 час и 3 минут назад, в 17:00 UTC
Прогноз действительный с 12-го 17 UTC до 13-го 23 UTC
Ветер 6 Узел переменных направлений
Видимость 10 км и более
небольшая облачность на высоте 5000 фута
временами
С 12-го 17 UTC до 13-го 23 UTC
Рассеянная облачность на высоте 5000 фута

TAF: KGTB 121700Z 1217/1323 VRB06KT 9999 FEW050 QNH2980INS TEMPO 1217/1323 BKN050 TX25/1317Z TN13/1309Z

Метеонаблюдения и прогнозы для более 4000 аэропортов (сводки METAR и TAF).

Имеющиеся станции представлены на карте желтыми и красными точками.

Чтобы увидеть название станции, наведите на нее мышь.

Затем щелкните, чтобы увидеть метеонаблюдения и метеопрогнозы.

Управление картой: чтобы увеличить масштаб, щелкните зеленые кнопки с черным крестиком; чтобы уменьшить масштаб, щелкните зеленую кнопку с тире; для просмотра соседних карт щелкайте зеленые стрелки.


METAR-TAF: